Time;durP1;ratioP1;P1;durP2;ratioP2;P2;SDS_P1;SDS_P2;PMS_P1;PMS_P2;Temp;Humidity;BMP_temperature;BMP_pressure;BME280_temperature;BME280_humidity;BME280_pressure;Samples;Min_cycle;Max_cycle;Signal;HPM_P1;HPM_P2
2021/04/07 00:00:21;;;;;;;;;31.50;29.10;;;;;6.73;42.65;97662.69;5638110;28;6539722;-65
2021/04/07 00:03:29;;;;;;;;;28.29;27.14;;;;;6.66;43.01;97649.38;5627172;28;6536591;-65
2021/04/07 00:06:40;;;;;;;;;35.91;29.27;;;;;6.67;42.95;97664.41;5637781;28;6585600;-65
2021/04/07 00:09:49;;;;;;;;;28.70;25.80;;;;;6.70;43.10;97663.13;5634901;28;6531733;-65
2021/04/07 00:12:58;;;;;;;;;28.00;25.20;;;;;6.71;42.68;97668.28;5619718;28;6508474;-66
2021/04/07 00:16:08;;;;;;;;;33.86;28.00;;;;;6.73;42.88;97665.38;5626247;28;6579296;-65
2021/04/07 00:19:12;;;;;;;;;25.00;22.67;;;;;6.75;43.04;97664.09;5611430;28;4188767;-65
2021/04/07 00:22:18;;;;;;;;;26.71;23.29;;;;;6.76;43.22;97664.91;5637120;28;6504347;-65
2021/04/07 00:25:25;;;;;;;;;30.00;25.67;;;;;6.57;42.94;97626.66;5628823;28;4375202;-65
2021/04/07 00:28:33;;;;;;;;;25.57;23.29;;;;;6.79;43.05;97664.47;5625439;28;5767236;-66
2021/04/07 00:31:38;;;;;;;;;23.00;22.00;;;;;6.74;43.25;97665.16;5636688;28;6494945;-66
2021/04/07 00:34:43;;;;;;;;;28.00;26.00;;;;;6.62;43.70;97661.59;5595380;28;4257201;-65
2021/04/07 00:37:49;;;;;;;;;25.57;24.00;;;;;6.61;43.66;97662.63;5600631;28;6520979;-65
2021/04/07 00:40:55;;;;;;;;;29.00;26.83;;;;;6.63;43.74;97665.09;5637038;28;5777219;-65
2021/04/07 00:44:03;;;;;;;;;29.63;25.88;;;;;6.65;43.33;97671.03;5636649;28;6555442;-65
2021/04/07 00:47:07;;;;;;;;;27.67;25.00;;;;;6.65;43.68;97666.50;5610120;28;3929430;-65
2021/04/07 00:50:11;;;;;;;;;28.00;25.00;;;;;6.67;43.66;97667.09;5619452;28;3921189;-65
2021/04/07 00:53:15;;;;;;;;;25.00;22.00;;;;;6.73;43.32;97678.78;5601678;28;4614805;-66
2021/04/07 00:56:24;;;;;;;;;28.70;23.90;;;;;6.80;43.31;97669.59;5634411;28;6559494;-66
2021/04/07 00:59:29;;;;;;;;;26.00;25.00;;;;;6.82;43.41;97674.72;5627687;28;4218384;-65
2021/04/07 01:02:37;;;;;;;;;26.00;23.00;;;;;6.79;43.40;97667.16;5608862;28;5792907;-66
2021/04/07 01:05:43;;;;;;;;;26.00;25.00;;;;;6.80;43.39;97680.31;5636998;28;5772121;-65
2021/04/07 01:08:51;;;;;;;;;26.71;24.29;;;;;6.82;43.42;97677.41;5627842;28;6494894;-65
2021/04/07 01:11:57;;;;;;;;;28.71;25.00;;;;;6.81;43.32;97681.94;5618225;28;6523088;-65
2021/04/07 01:15:06;;;;;;;;;25.50;22.67;;;;;6.76;43.38;97681.81;5627545;28;5765812;-65
2021/04/07 01:18:14;;;;;;;;;29.29;25.00;;;;;6.70;43.82;97676.53;5618493;28;5794659;-65
2021/04/07 01:21:20;;;;;;;;;23.14;22.14;;;;;6.52;43.96;97690.78;5635934;28;6510553;-65
2021/04/07 01:24:28;;;;;;;;;28.14;24.57;;;;;6.54;44.42;97694.06;5596004;28;6533829;-65
2021/04/07 01:27:38;;;;;;;;;29.57;25.57;;;;;6.50;44.09;97695.53;5620168;28;5792899;-65
2021/04/07 01:30:48;;;;;;;;;28.71;26.29;;;;;6.59;44.02;97699.56;5644912;28;6510869;-65
2021/04/07 01:33:55;;;;;;;;;24.00;22.00;;;;;6.60;44.14;97701.16;5644398;28;5770727;-65
2021/04/07 01:37:04;;;;;;;;;27.57;26.57;;;;;6.60;44.16;97695.03;5626406;28;5783568;-66
2021/04/07 01:40:16;;;;;;;;;27.71;23.43;;;;;6.59;43.97;97704.09;5627800;28;5769950;-65
2021/04/07 01:43:24;;;;;;;;;26.17;24.50;;;;;6.62;43.61;97699.09;5635370;28;5773188;-65
2021/04/07 01:46:33;;;;;;;;;24.17;23.17;;;;;6.60;43.58;97701.16;5628457;28;5766796;-65
2021/04/07 01:49:37;;;;;;;;;21.67;20.67;;;;;6.61;43.49;97702.81;5614143;28;4145039;-66
2021/04/07 01:52:45;;;;;;;;;18.71;18.29;;;;;6.54;43.72;97710.13;5631933;28;6498019;-65
2021/04/07 01:55:53;;;;;;;;;21.29;18.29;;;;;6.56;43.45;97701.84;5648791;28;6504308;-65
2021/04/07 01:59:17;;;;;;;;;16.86;16.00;;;;;6.53;43.37;97705.81;5637733;28;6497408;-65
2021/04/07 02:02:25;;;;;;;;;19.43;17.43;;;;;6.60;43.53;97711.09;5649585;28;6487629;-65
2021/04/07 02:05:32;;;;;;;;;18.14;17.00;;;;;6.61;42.80;97713.53;5649887;28;5739759;-65
2021/04/07 02:08:38;;;;;;;;;21.00;19.71;;;;;6.69;42.42;97710.56;5623036;28;5768920;-65
2021/04/07 02:11:48;;;;;;;;;17.29;16.00;;;;;6.79;41.82;97712.69;5631212;28;6498039;-65
2021/04/07 02:14:56;;;;;;;;;20.00;19.29;;;;;6.85;41.68;97709.09;5630268;28;6501178;-65
2021/04/07 02:18:02;;;;;;;;;20.00;19.71;;;;;6.85;41.92;97709.91;5637367;28;5756519;-66
2021/04/07 02:21:07;;;;;;;;;16.67;15.83;;;;;6.44;41.78;97649.06;5637283;28;5760565;-66
2021/04/07 02:24:12;;;;;;;;;18.00;17.00;;;;;6.89;41.44;97711.09;5637777;28;5737687;-65
2021/04/07 02:27:22;;;;;;;;;17.00;15.67;;;;;6.82;41.64;97713.06;5619482;28;5733518;-65
2021/04/07 02:30:27;;;;;;;;;22.13;19.50;;;;;6.78;41.56;97714.56;5619961;28;6515088;-66
2021/04/07 02:33:35;;;;;;;;;16.50;16.00;;;;;6.82;41.66;97714.91;5648432;28;5748103;-66
2021/04/07 02:36:40;;;;;;;;;14.33;13.00;;;;;6.83;41.47;97708.50;5621495;28;4981405;-66
2021/04/07 02:39:48;;;;;;;;;15.00;14.00;;;;;6.75;41.53;97714.97;5629209;28;5712774;-66
2021/04/07 02:42:55;;;;;;;;;16.00;15.00;;;;;6.76;41.21;97719.31;5647631;28;5754356;-66
2021/04/07 02:46:04;;;;;;;;;19.00;18.00;;;;;6.79;41.51;97715.38;5630499;28;5736595;-66
2021/04/07 02:49:08;;;;;;;;;19.00;15.00;;;;;6.71;41.46;97719.16;5614482;28;3906508;-66
2021/04/07 02:52:13;;;;;;;;;15.67;15.17;;;;;6.79;41.26;97718.84;5636948;28;5703374;-66
2021/04/07 02:55:20;;;;;;;;;17.67;17.67;;;;;6.78;41.03;97724.44;5629298;28;5736626;-67
2021/04/07 02:58:28;;;;;;;;;20.00;18.00;;;;;6.83;41.24;97727.25;5645759;28;5740815;-66
2021/04/07 03:01:35;;;;;;;;;17.00;16.43;;;;;6.80;41.07;97730.38;5631145;28;6506696;-66
2021/04/07 03:04:41;;;;;;;;;19.57;19.57;;;;;6.81;40.96;97738.19;5617470;28;5768905;-66
2021/04/07 03:07:48;;;;;;;;;19.00;17.50;;;;;6.87;40.96;97733.81;5625378;28;5745307;-66
2021/04/07 03:10:54;;;;;;;;;20.86;19.86;;;;;6.88;40.66;97733.59;5616465;28;6486612;-66
2021/04/07 03:14:01;;;;;;;;;21.00;19.00;;;;;6.74;40.90;97712.56;5617296;28;5747387;-66
2021/04/07 03:17:04;;;;;;;;;20.00;17.00;;;;;6.88;40.61;97736.25;5632026;28;3912752;-66
2021/04/07 03:20:11;;;;;;;;;20.71;19.29;;;;;6.87;40.45;97731.13;5604931;28;6486984;-66
2021/04/07 03:23:17;;;;;;;;;21.71;20.00;;;;;6.82;40.79;97730.97;5638156;28;6521358;-66
2021/04/07 03:26:26;;;;;;;;;23.50;20.88;;;;;6.82;40.94;97739.03;5648878;28;6517096;-66
2021/04/07 03:29:33;;;;;;;;;18.71;17.29;;;;;6.80;40.72;97733.06;5640114;28;6504289;-66
2021/04/07 03:32:37;;;;;;;;;20.50;19.50;;;;;6.77;40.59;97734.34;5631277;28;4450144;-66
2021/04/07 03:35:46;;;;;;;;;20.71;19.00;;;;;6.74;40.87;97734.81;5630244;28;6507468;-66
2021/04/07 03:38:54;;;;;;;;;20.00;19.00;;;;;6.72;41.03;97747.59;5648244;28;5770005;-66
2021/04/07 03:42:00;;;;;;;;;21.71;21.00;;;;;6.67;41.16;97751.97;5638158;28;6516816;-66
2021/04/07 03:45:11;;;;;;;;;22.71;20.71;;;;;6.67;41.22;97743.94;5643604;28;5775206;-66
2021/04/07 03:48:21;;;;;;;;;22.71;20.00;;;;;6.64;41.22;97750.59;5647073;28;6516808;-66
2021/04/07 03:51:27;;;;;;;;;22.00;21.00;;;;;6.53;41.23;97738.75;5619565;28;6510553;-66
2021/04/07 03:54:30;;;;;;;;;22.00;21.00;;;;;6.48;41.54;97751.16;5629554;28;4480442;-66
2021/04/07 03:57:34;;;;;;;;;22.00;21.00;;;;;6.47;41.39;97760.25;5596033;28;4451280;-66
2021/04/07 04:00:42;;;;;;;;;34.13;31.25;;;;;6.34;41.34;97755.84;5619556;28;6526636;-66
2021/04/07 04:03:47;;;;;;;;;22.57;20.00;;;;;6.33;41.67;97764.91;5636400;28;6516851;-66
2021/04/07 04:06:55;;;;;;;;;21.71;19.43;;;;;6.36;41.60;97785.06;5612492;28;6489709;-66
2021/04/07 04:09:59;;;;;;;;;21.00;20.00;;;;;6.37;41.28;97782.16;5630192;28;4329327;-66
2021/04/07 04:13:04;;;;;;;;;21.00;19.50;;;;;6.38;41.55;97780.31;5629001;28;4478347;-66
2021/04/07 04:16:13;;;;;;;;;21.33;19.00;;;;;6.36;41.65;97782.38;5641295;28;5775553;-65
2021/04/07 04:19:17;;;;;;;;;21.00;20.00;;;;;6.40;41.38;97784.38;5630535;28;4206414;-65
2021/04/07 04:22:26;;;;;;;;;24.43;21.00;;;;;6.43;41.27;97796.53;5644252;28;5798105;-65
2021/04/07 04:25:32;;;;;;;;;19.43;18.29;;;;;6.49;41.17;97793.78;5640057;28;6481755;-65
2021/04/07 04:28:38;;;;;;;;;23.71;21.29;;;;;6.53;40.99;97786.13;5638382;28;6516831;-66
2021/04/07 04:31:45;;;;;;;;;20.57;20.14;;;;;6.57;40.93;97808.72;5632180;28;6518924;-65
2021/04/07 04:34:53;;;;;;;;;25.00;23.17;;;;;6.64;40.71;97796.09;5622069;28;5770996;-65
2021/04/07 04:37:57;;;;;;;;;25.00;23.67;;;;;6.50;40.89;97765.13;5618277;28;4151300;-66
2021/04/07 04:41:04;;;;;;;;;26.17;22.83;;;;;6.80;40.72;97808.06;5637628;28;5775142;-66
2021/04/07 04:44:11;;;;;;;;;23.86;21.57;;;;;6.78;40.56;97810.16;5647405;28;6505317;-66
2021/04/07 04:47:17;;;;;;;;;22.00;20.33;;;;;6.82;41.01;97814.03;5630745;28;4263729;-66
2021/04/07 04:50:31;;;;;;;;;23.20;21.20;;;;;6.93;41.00;97818.63;5637598;28;6515036;-66
2021/04/07 04:53:39;;;;;;;;;23.14;22.57;;;;;6.94;40.63;97818.38;5627473;28;6499041;-66
2021/04/07 04:56:47;;;;;;;;;23.71;22.00;;;;;7.04;40.78;97822.44;5640689;28;6512605;-66
2021/04/07 04:59:55;;;;;;;;;26.00;23.86;;;;;7.11;40.56;97825.81;5624034;28;6488640;-66
2021/04/07 05:03:02;;;;;;;;;24.00;22.00;;;;;7.27;40.66;97831.41;5637288;28;5785031;-66
2021/04/07 05:06:10;;;;;;;;;26.00;23.29;;;;;7.31;40.61;97831.75;5661225;28;5726270;-66
2021/04/07 05:09:18;;;;;;;;;28.43;25.43;;;;;7.29;40.57;97831.16;5645537;28;5785575;-65
2021/04/07 05:12:22;;;;;;;;;27.00;23.50;;;;;7.29;40.77;97834.66;5612507;28;4476201;-65
2021/04/07 05:15:30;;;;;;;;;24.71;22.71;;;;;7.37;40.42;97830.84;5648552;28;5783606;-66
2021/04/07 05:18:37;;;;;;;;;25.67;24.00;;;;;7.42;40.45;97831.00;5599774;28;5773123;-66
2021/04/07 05:21:45;;;;;;;;;27.00;24.57;;;;;7.54;40.33;97834.53;5626584;28;5750145;-65
2021/04/07 05:24:53;;;;;;;;;29.20;25.50;;;;;7.59;40.30;97834.66;5613056;28;6546946;-65
2021/04/07 05:28:02;;;;;;;;;28.50;24.50;;;;;7.74;39.78;97840.44;5622493;28;6505666;-66
2021/04/07 05:31:04;;;;;;;;;30.67;26.67;;;;;7.79;39.87;97843.25;5609040;28;4330392;-65
2021/04/07 05:34:08;;;;;;;;;30.00;26.33;;;;;7.81;39.79;97841.16;5621792;28;4490796;-65
2021/04/07 05:37:15;;;;;;;;;30.00;27.00;;;;;7.79;39.86;97843.25;5620334;28;6551209;-65
2021/04/07 05:40:24;;;;;;;;;29.71;25.86;;;;;7.81;40.08;97840.34;5627454;28;6553268;-65
2021/04/07 05:43:49;;;;;;;;;29.29;27.71;;;;;7.83;40.23;97838.22;5644586;28;5789912;-65
2021/04/07 05:46:58;;;;;;;;;31.00;28.71;;;;;8.06;40.19;97848.22;5629883;28;6536603;-65
2021/04/07 05:50:03;;;;;;;;;29.33;28.00;;;;;8.11;39.70;97861.75;5631277;28;3933073;-65
2021/04/07 05:53:10;;;;;;;;;32.67;28.17;;;;;8.20;39.68;97863.88;5639504;28;5785587;-66
2021/04/07 05:56:14;;;;;;;;;36.14;31.57;;;;;8.30;39.89;97862.50;5616689;28;6533498;-65
2021/04/07 05:59:20;;;;;;;;;30.33;28.67;;;;;8.35;40.00;97865.31;5604408;28;5783528;-65
2021/04/07 06:02:29;;;;;;;;;35.29;32.14;;;;;8.31;40.23;97869.53;5628485;28;5795979;-66
2021/04/07 06:05:40;;;;;;;;;32.86;29.71;;;;;8.13;40.60;97855.09;5629870;28;6525152;-66
2021/04/07 06:08:49;;;;;;;;;35.29;29.00;;;;;8.27;40.52;97866.44;5647549;28;6566826;-66
2021/04/07 06:11:57;;;;;;;;;34.00;30.00;;;;;8.49;40.55;97875.59;5640050;28;5779341;-66
2021/04/07 06:15:07;;;;;;;;;34.29;30.00;;;;;8.60;39.96;97876.66;5649496;28;5797129;-63
2021/04/07 06:18:16;;;;;;;;;35.00;30.14;;;;;8.83;40.19;97881.22;5645354;28;5791951;-63
2021/04/07 06:21:20;;;;;;;;;32.33;30.00;;;;;9.06;40.05;97882.00;5628652;28;3925817;-63
2021/04/07 06:24:28;;;;;;;;;33.00;30.29;;;;;9.22;40.00;97888.53;5634532;28;6516816;-63
2021/04/07 06:27:31;;;;;;;;;31.00;30.00;;;;;9.47;39.33;97888.22;5614013;28;4493978;-63
2021/04/07 06:30:43;;;;;;;;;32.80;30.00;;;;;9.45;39.23;97895.69;5627115;28;6549043;-63
2021/04/07 06:33:50;;;;;;;;;34.86;30.00;;;;;9.55;39.16;97888.66;5619758;28;5806523;-63
2021/04/07 06:36:55;;;;;;;;;31.67;29.50;;;;;9.64;39.08;97899.84;5637767;28;5787638;-62
2021/04/07 06:40:02;;;;;;;;;39.00;32.71;;;;;9.82;38.76;97888.88;5638384;28;6569919;-63
2021/04/07 06:43:09;;;;;;;;;36.14;32.00;;;;;10.08;38.63;97898.25;5622260;28;5792984;-62
2021/04/07 06:46:20;;;;;;;;;36.14;31.86;;;;;9.73;37.97;97862.59;5648383;28;6542785;-62
2021/04/07 06:49:26;;;;;;;;;39.00;32.00;;;;;9.91;38.30;97897.41;5630078;28;6567241;-62
2021/04/07 06:52:36;;;;;;;;;39.14;32.71;;;;;10.07;38.13;97907.38;5641761;28;6561577;-63
2021/04/07 06:55:45;;;;;;;;;34.17;30.83;;;;;9.97;38.24;97905.31;5631263;28;5774157;-63
2021/04/07 06:58:53;;;;;;;;;30.71;29.57;;;;;9.95;38.04;97917.41;5645102;28;6553221;-63
2021/04/07 07:02:01;;;;;;;;;31.00;28.14;;;;;9.96;38.07;97906.41;5637566;28;5784548;-62
2021/04/07 07:05:07;;;;;;;;;31.43;29.00;;;;;9.83;38.70;97912.06;5607772;28;5801234;-63
2021/04/07 07:08:13;;;;;;;;;27.67;25.00;;;;;9.73;38.29;97911.88;5587964;28;4557459;-62
2021/04/07 07:11:19;;;;;;;;;26.00;25.71;;;;;9.71;38.61;97918.56;5630743;28;6494961;-62
2021/04/07 07:14:25;;;;;;;;;25.71;24.57;;;;;9.67;38.86;97922.78;5607527;28;6500145;-62
2021/04/07 07:17:34;;;;;;;;;26.71;25.00;;;;;9.81;38.88;97926.84;5631569;28;6489690;-62
2021/04/07 07:20:39;;;;;;;;;24.67;22.67;;;;;9.80;38.44;97920.63;5597001;28;3920076;-62
2021/04/07 07:23:46;;;;;;;;;28.00;26.00;;;;;9.88;38.48;97920.22;5605703;28;4213837;-62
2021/04/07 07:26:51;;;;;;;;;29.00;26.00;;;;;10.02;38.00;97930.72;5595229;28;3931404;-63
2021/04/07 07:30:00;;;;;;;;;25.67;24.00;;;;;10.25;38.19;97936.03;5623928;28;5751252;-62
2021/04/07 07:33:17;;;;;;;;;25.57;24.00;;;;;10.47;37.48;97934.25;5609111;28;5750119;-63
2021/04/07 07:36:24;;;;;;;;;25.00;25.00;;;;;10.47;36.71;97944.19;5599493;28;4140909;-63
2021/04/07 07:39:32;;;;;;;;;23.00;21.00;;;;;10.55;36.38;97941.94;5604006;28;4246058;-62
2021/04/07 07:42:40;;;;;;;;;24.29;22.57;;;;;10.77;35.55;97942.00;5595270;28;6515801;-62
2021/04/07 07:45:49;;;;;;;;;23.63;21.63;;;;;10.85;35.83;97947.78;5607073;28;6516784;-62
2021/04/07 07:49:00;;;;;;;;;25.00;24.00;;;;;10.76;36.35;97948.47;5614115;28;5789863;-62
2021/04/07 07:52:09;;;;;;;;;24.57;21.00;;;;;10.82;36.96;97948.31;5609068;28;5783608;-62
2021/04/07 07:55:20;;;;;;;;;31.00;28.00;;;;;11.32;37.01;97952.00;5619490;28;6576204;-63
2021/04/07 07:58:25;;;;;;;;;28.00;27.00;;;;;11.28;36.75;97930.91;5591129;28;4210598;-63
2021/04/07 08:01:41;;;;;;;;;26.00;25.00;;;;;11.44;36.71;97960.78;5592125;28;4216411;-63
2021/04/07 08:04:46;;;;;;;;;26.00;23.00;;;;;11.70;36.20;97965.44;5591557;28;4385671;-62
2021/04/07 08:08:09;;;;;;;;;24.75;22.75;;;;;11.73;35.90;97963.09;5582242;28;7208442;-62
2021/04/07 08:11:22;;;;;;;;;25.00;23.00;;;;;11.71;36.12;97969.78;5625848;28;5757511;-63
2021/04/07 08:14:31;;;;;;;;;27.00;24.29;;;;;11.58;36.28;97970.16;5613635;28;5771023;-62
2021/04/07 08:17:36;;;;;;;;;26.00;25.00;;;;;11.79;36.34;97963.97;5602315;28;4360657;-62
2021/04/07 08:20:43;;;;;;;;;23.71;22.00;;;;;12.17;35.84;97964.94;5603963;28;5790195;-62
2021/04/07 08:23:55;;;;;;;;;23.67;22.00;;;;;12.27;35.49;97943.41;5608562;28;5781452;-62
2021/04/07 08:27:07;;;;;;;;;24.17;23.17;;;;;12.88;35.02;97955.59;5637569;28;5770996;-62
2021/04/07 08:30:15;;;;;;;;;23.67;21.67;;;;;13.33;32.87;97952.41;5642592;28;5775505;-62
2021/04/07 08:33:20;;;;;;;;;23.00;21.00;;;;;13.91;32.66;97945.09;5595365;28;4362130;-62
2021/04/07 08:36:42;;;;;;;;;22.00;21.00;;;;;14.10;31.67;97968.72;5611221;28;4557547;-62
2021/04/07 08:39:51;;;;;;;;;18.86;18.43;;;;;14.39;30.96;97960.97;5583559;28;6498081;-62
2021/04/07 08:42:57;;;;;;;;;21.00;20.00;;;;;14.20;31.24;97957.09;5596527;28;4364754;-62
2021/04/07 08:46:11;;;;;;;;;28.00;26.00;;;;;14.03;31.69;97968.16;5633402;28;6525149;-62
2021/04/07 08:49:32;;;;;;;;;22.29;21.14;;;;;14.60;29.98;97957.22;5608156;28;6504319;-62
2021/04/07 08:52:44;;;;;;;;;25.10;22.40;;;;;14.60;30.02;97927.38;5631377;28;6525081;-62
2021/04/07 08:55:54;;;;;;;;;25.90;23.20;;;;;15.09;29.61;97959.38;5605429;28;6512606;-62
2021/04/07 08:59:01;;;;;;;;;21.67;19.00;;;;;14.99;28.83;97964.81;5594654;28;4404470;-62
2021/04/07 09:02:06;;;;;;;;;20.00;18.33;;;;;14.53;29.00;97972.09;5593946;28;5762623;-62
2021/04/07 09:05:15;;;;;;;;;20.71;20.00;;;;;14.36;29.47;97974.22;5625619;28;6493914;-61
2021/04/07 09:08:23;;;;;;;;;20.29;19.14;;;;;14.33;29.09;97970.97;5622899;28;6505374;-62
2021/04/07 09:11:33;;;;;;;;;18.83;17.33;;;;;14.02;28.56;97971.97;5645444;28;5731766;-61
2021/04/07 09:14:41;;;;;;;;;19.29;18.57;;;;;13.76;28.89;97968.34;5627295;28;6504340;-62
2021/04/07 09:17:50;;;;;;;;;18.90;17.00;;;;;13.71;28.96;97967.50;5630745;28;5733451;-62
2021/04/07 09:20:56;;;;;;;;;19.71;18.71;;;;;14.05;28.87;97954.34;5608371;28;6500174;-62
2021/04/07 09:24:02;;;;;;;;;18.00;16.71;;;;;14.20;28.74;97963.34;5626003;28;5764890;-62
2021/04/07 09:27:18;;;;;;;;;14.83;14.67;;;;;14.69;28.81;97968.34;5628950;28;5729296;-62
2021/04/07 09:30:26;;;;;;;;;17.71;16.71;;;;;14.47;28.11;97967.75;5639212;28;6491816;-63
2021/04/07 09:33:37;;;;;;;;;21.75;19.63;;;;;14.64;28.47;97977.28;5617752;28;6516776;-62
2021/04/07 09:36:46;;;;;;;;;18.00;17.00;;;;;14.64;27.71;97990.03;5628077;28;5758521;-62
2021/04/07 09:39:49;;;;;;;;;18.40;17.00;;;;;14.34;28.77;97969.06;5618274;28;4475231;-62
2021/04/07 09:42:54;;;;;;;;;20.43;19.86;;;;;14.15;29.46;97955.19;5610285;28;6500142;-62
2021/04/07 09:46:00;;;;;;;;;19.67;17.67;;;;;14.10;28.87;97976.03;5624845;28;5729122;-63
2021/04/07 09:49:10;;;;;;;;;19.86;17.43;;;;;14.36;28.39;97974.22;5633059;28;6492767;-62
2021/04/07 09:52:17;;;;;;;;;20.80;18.20;;;;;15.02;28.31;97959.66;5637269;28;5762738;-62
2021/04/07 09:55:24;;;;;;;;;18.29;16.71;;;;;15.62;27.25;97970.72;5635626;28;6491809;-62
2021/04/07 09:58:41;;;;;;;;;19.86;18.00;;;;;15.87;27.30;97965.19;5658015;28;6478248;-62
2021/04/07 10:01:47;;;;;;;;;17.71;16.00;;;;;15.74;26.00;97973.91;5620521;28;6488746;-62
2021/04/07 10:04:54;;;;;;;;;13.00;12.33;;;;;15.14;26.94;97978.38;5632623;28;5691876;-60
2021/04/07 10:08:23;;;;;;;;;9.00;8.20;;;;;14.41;27.79;98001.38;5630073;28;4878359;-62
2021/04/07 10:11:30;;;;;;;;;8.83;8.00;;;;;13.89;28.34;98000.34;5614347;28;4887124;-62
2021/04/07 10:14:35;;;;;;;;;8.00;8.00;;;;;13.56;28.77;98000.75;5646464;28;4885583;-61
2021/04/07 10:17:41;;;;;;;;;9.00;9.00;;;;;13.15;28.73;97990.72;5596962;28;4857515;-62
2021/04/07 10:20:48;;;;;;;;;9.56;9.56;;;;;13.83;28.22;98006.00;5629792;28;5641846;-62
2021/04/07 10:23:51;;;;;;;;;12.00;10.00;;;;;14.39;28.13;98011.69;5613736;28;4375629;-62
2021/04/07 10:26:54;;;;;;;;;16.00;14.00;;;;;14.44;29.46;98009.78;5609060;28;4314783;-62
2021/04/07 10:30:05;;;;;;;;;15.67;15.00;;;;;14.69;29.96;97998.19;5610069;28;5737688;-63
2021/04/07 10:33:11;;;;;;;;;14.00;14.00;;;;;15.14;29.99;97994.66;5613574;28;5727259;-63
2021/04/07 10:36:15;;;;;;;;;15.00;15.00;;;;;15.58;29.35;97984.84;5623242;28;4243943;-62
2021/04/07 10:39:23;;;;;;;;;17.00;15.29;;;;;15.95;27.98;97978.19;5639334;28;5751630;-62
2021/04/07 10:42:30;;;;;;;;;14.67;13.33;;;;;16.23;28.12;97973.97;5632333;28;5735548;-62
2021/04/07 10:45:35;;;;;;;;;17.83;15.83;;;;;16.44;27.29;97997.25;5626619;28;5754343;-63
2021/04/07 10:48:39;;;;;;;;;15.33;14.67;;;;;16.66;26.34;97977.84;5626786;28;3899193;-62
2021/04/07 10:51:57;;;;;;;;;16.00;15.67;;;;;16.53;26.00;97952.03;5613005;28;5760031;-61
2021/04/07 10:55:06;;;;;;;;;14.00;13.14;;;;;16.95;25.53;97972.44;5637943;28;6458485;-61
2021/04/07 10:58:11;;;;;;;;;17.00;16.29;;;;;17.41;24.84;97975.53;5602744;28;5735581;-64
2021/04/07 11:01:26;;;;;;;;;15.00;14.00;;;;;17.04;24.11;97985.16;5627151;28;5705378;-65
2021/04/07 11:04:39;;;;;;;;;15.00;14.00;;;;;16.22;27.12;98005.81;5624668;28;5725101;-66
2021/04/07 11:07:48;;;;;;;;;16.10;15.80;;;;;15.37;31.09;98026.69;5634932;28;5742821;-62
2021/04/07 11:10:53;;;;;;;;;16.00;15.00;;;;;14.44;33.97;98039.63;5647713;28;5745978;-62
2021/04/07 11:14:00;;;;;;;;;16.00;16.00;;;;;13.95;35.51;98035.59;5637624;28;5758906;-62
2021/04/07 11:17:06;;;;;;;;;16.29;15.00;;;;;13.73;35.73;98027.66;5628368;28;5753446;-62
2021/04/07 11:20:15;;;;;;;;;16.50;16.50;;;;;14.57;35.39;98020.13;5639183;28;5740774;-62
2021/04/07 11:23:20;;;;;;;;;15.67;15.00;;;;;15.18;33.58;98009.31;5608889;28;5742277;-63
2021/04/07 11:26:26;;;;;;;;;16.67;14.67;;;;;15.41;33.73;98016.06;5630786;28;5746026;-63
2021/04/07 11:29:35;;;;;;;;;16.29;15.29;;;;;15.30;32.82;98006.31;5617956;28;5754383;-64
2021/04/07 11:32:45;;;;;;;;;15.33;15.00;;;;;15.03;32.16;98014.75;5630487;28;5718957;-62
2021/04/07 11:36:25;;;;;;;;;17.00;15.86;;;;;14.28;34.09;98036.00;5638775;28;5749126;-63
2021/04/07 11:39:38;;;;;;;;;17.56;16.00;;;;;13.34;36.86;98054.22;5630758;28;5749106;-66
2021/04/07 11:42:58;;;;;;;;;16.33;15.00;;;;;12.69;38.52;98060.63;5614787;28;5736591;-65
2021/04/07 11:46:05;;;;;;;;;16.29;14.29;;;;;12.30;39.22;98054.53;5637720;28;6479333;-65
2021/04/07 11:49:19;;;;;;;;;16.14;14.86;;;;;12.09;39.70;98052.66;5628737;28;5739878;-67
2021/04/07 11:52:28;;;;;;;;;16.00;15.00;;;;;11.96;39.50;98051.16;5608052;28;5733530;-66
2021/04/07 11:55:36;;;;;;;;;16.33;14.33;;;;;11.86;40.03;98051.03;5617041;28;5750195;-62
2021/04/07 11:58:46;;;;;;;;;17.00;16.00;;;;;11.77;40.23;98047.13;5621539;28;6481349;-65
2021/04/07 12:01:54;;;;;;;;;17.33;16.33;;;;;11.73;40.66;98063.00;5631210;28;5745961;-63
2021/04/07 12:05:00;;;;;;;;;19.14;16.14;;;;;11.84;40.43;98055.84;5609024;28;5746200;-62
2021/04/07 12:08:07;;;;;;;;;17.50;16.50;;;;;11.94;40.08;98049.75;5626604;28;5740106;-62
2021/04/07 12:11:13;;;;;;;;;18.00;16.67;;;;;12.27;39.70;98054.22;5628412;28;5748028;-65
2021/04/07 12:14:18;;;;;;;;;14.67;14.33;;;;;12.38;39.29;98053.25;5625617;28;4966837;-64
2021/04/07 12:17:25;;;;;;;;;14.00;12.86;;;;;12.37;38.46;98025.41;5624051;28;5710684;-62
2021/04/07 12:20:31;;;;;;;;;14.33;12.00;;;;;12.53;36.86;98042.63;5636444;28;5691860;-62
2021/04/07 12:23:35;;;;;;;;;11.00;11.00;;;;;12.63;37.37;98042.72;5622762;28;3271034;-62
2021/04/07 12:26:41;;;;;;;;;11.00;11.00;;;;;12.69;36.81;98052.53;5634340;28;4945128;-62
2021/04/07 12:29:49;;;;;;;;;16.43;16.00;;;;;12.91;36.93;98042.44;5631537;28;5742818;-62
2021/04/07 12:32:54;;;;;;;;;17.00;16.00;;;;;12.98;36.12;98045.78;5624978;28;5732840;-63
2021/04/07 12:36:00;;;;;;;;;17.00;16.29;;;;;13.02;36.50;98046.88;5606621;28;6488727;-63
2021/04/07 12:39:07;;;;;;;;;16.67;15.00;;;;;13.54;36.07;98046.22;5627885;28;5748096;-61
2021/04/07 12:42:16;;;;;;;;;13.00;12.43;;;;;13.87;34.20;98043.16;5637405;28;5704449;-61
2021/04/07 12:45:19;;;;;;;;;15.00;14.00;;;;;14.38;33.79;98039.88;5612869;28;4471092;-63
2021/04/07 12:48:23;;;;;;;;;14.00;13.00;;;;;14.63;32.65;98043.47;5625583;28;4534607;-63
2021/04/07 12:51:29;;;;;;;;;10.67;10.00;;;;;14.93;31.88;98031.84;5635251;28;5670995;-61
2021/04/07 12:54:35;;;;;;;;;13.00;12.33;;;;;15.24;31.71;98021.81;5605476;28;4171005;-63
2021/04/07 12:57:39;;;;;;;;;14.00;12.00;;;;;15.66;30.68;98023.41;5625466;28;5704313;-62
2021/04/07 13:00:44;;;;;;;;;13.00;12.33;;;;;15.45;30.37;98034.25;5629350;28;4979371;-62
2021/04/07 13:03:52;;;;;;;;;14.00;13.33;;;;;14.87;30.94;98042.97;5633227;28;5738015;-62
2021/04/07 13:06:55;;;;;;;;;11.00;11.00;;;;;14.63;30.96;98038.03;5626217;28;4945007;-63
2021/04/07 13:09:59;;;;;;;;;9.00;8.83;;;;;14.32;31.84;98082.38;5625873;28;5592250;-61
2021/04/07 13:13:07;;;;;;;;;10.00;9.00;;;;;13.72;32.70;98083.72;5646315;28;5619314;-61
2021/04/07 13:16:10;;;;;;;;;10.00;9.00;;;;;13.33;33.56;98091.28;5629740;28;3814785;-64
2021/04/07 13:19:14;;;;;;;;;6.40;6.40;;;;;13.62;34.11;98090.97;5641603;28;4853329;-62
2021/04/07 13:22:18;;;;;;;;;6.00;6.00;;;;;13.70;33.46;98088.56;5626890;28;4848133;-62
2021/04/07 13:25:25;;;;;;;;;5.40;5.40;;;;;13.79;33.75;98086.19;5637784;28;4848162;-62
2021/04/07 13:28:29;;;;;;;;;9.00;7.00;;;;;13.83;33.95;98088.09;5647418;28;4151237;-62
2021/04/07 13:31:42;;;;;;;;;7.00;7.00;;;;;14.13;33.72;98090.16;5662343;28;4874262;-63
2021/04/07 13:34:51;;;;;;;;;8.00;7.00;;;;;14.41;33.28;98091.69;5623233;28;4878339;-61
2021/04/07 13:38:02;;;;;;;;;8.56;8.56;;;;;14.50;31.61;98103.66;5655566;28;4870044;-62
2021/04/07 13:44:31;;;;;;;;;8.50;8.00;;;;;15.00;31.06;98083.94;5669120;28;4866865;-63
2021/04/07 13:47:36;;;;;;;;;10.00;9.60;;;;;15.35;30.38;98083.16;5641727;28;4929423;-63
2021/04/07 13:50:40;;;;;;;;;11.00;9.00;;;;;15.14;28.94;98074.22;5658593;28;4916839;-62
2021/04/07 13:53:46;;;;;;;;;10.00;8.50;;;;;14.80;29.34;98094.78;5641610;28;5631459;-63
2021/04/07 13:57:03;;;;;;;;;8.00;8.00;;;;;14.66;29.28;98091.75;5620297;28;4866897;-64
2021/04/07 14:00:07;;;;;;;;;8.20;7.00;;;;;14.65;27.15;98092.84;5636435;28;4846067;-66
2021/04/07 14:03:12;;;;;;;;;9.00;8.33;;;;;14.78;27.95;98098.84;5626595;28;4877297;-63
2021/04/07 14:06:20;;;;;;;;;8.00;8.00;;;;;14.80;27.17;98086.66;5653526;28;4878361;-64
2021/04/07 14:09:26;;;;;;;;;9.00;7.50;;;;;15.04;26.96;98097.81;5668177;28;5599140;-64
2021/04/07 14:12:34;;;;;;;;;8.00;7.40;;;;;15.05;26.84;98097.53;5640569;28;4880371;-63